createdAt,value
2018-03-15T00:00:06.135Z,97.90
2018-03-15T00:01:11.879Z,98.20
2018-03-15T00:02:17.624Z,96.60
2018-03-15T00:03:26.769Z,95.90
2018-03-15T00:04:35.233Z,96.10
2018-03-15T00:05:40.392Z,96.10
2018-03-15T00:06:45.382Z,96.30
2018-03-15T00:07:51.364Z,96.70
2018-03-15T00:08:56.688Z,96.80
2018-03-15T00:10:02.466Z,97.00
2018-03-15T00:11:07.965Z,97.10
2018-03-15T00:12:13.557Z,97.50
2018-03-15T00:13:19.008Z,97.70
2018-03-15T00:14:24.340Z,97.80
2018-03-15T00:15:30.181Z,97.70
2018-03-15T00:16:35.995Z,97.80
2018-03-15T00:17:41.404Z,97.80
2018-03-15T00:18:47.713Z,98.00
2018-03-15T00:19:53.392Z,98.00
2018-03-15T00:20:59.633Z,98.00
2018-03-15T00:22:05.142Z,98.00
2018-03-15T00:23:10.170Z,98.10
2018-03-15T00:24:15.246Z,98.10
2018-03-15T00:25:20.533Z,98.20
2018-03-15T00:26:25.985Z,98.30
2018-03-15T00:27:32.573Z,98.30
2018-03-15T00:28:37.552Z,98.40
2018-03-15T00:29:43.654Z,98.40
2018-03-15T00:30:49.535Z,98.30
2018-03-15T00:31:56.582Z,98.50
2018-03-15T00:33:02.676Z,98.60
2018-03-15T00:34:08.425Z,98.70
2018-03-15T00:35:13.799Z,98.90
2018-03-15T00:36:19.102Z,98.80
2018-03-15T00:37:25.249Z,98.90
2018-03-15T00:38:31.703Z,98.90
2018-03-15T00:39:37.476Z,99.00
2018-03-15T00:40:43.093Z,99.00
2018-03-15T00:41:48.951Z,99.20
2018-03-15T00:42:54.980Z,99.10
2018-03-15T00:44:00.287Z,99.30
2018-03-15T00:45:06.779Z,99.30
2018-03-15T00:46:12.099Z,99.40
2018-03-15T00:47:18.322Z,99.50
2018-03-15T00:48:24.241Z,99.50
2018-03-15T00:49:30.196Z,99.50
2018-03-15T00:50:36.191Z,99.60
2018-03-15T00:51:43.355Z,99.50
2018-03-15T00:52:50.297Z,99.50
2018-03-15T00:53:58.021Z,99.60
2018-03-15T00:55:04.214Z,99.50
2018-03-15T00:56:10.818Z,99.60
2018-03-15T00:57:16.988Z,99.80
2018-03-15T00:58:24.426Z,99.60
2018-03-15T00:59:29.705Z,99.60
2018-03-15T01:00:35.557Z,99.70
2018-03-15T01:01:41.335Z,99.60
2018-03-15T01:02:46.869Z,99.90
2018-03-15T01:03:52.753Z,99.80
2018-03-15T01:04:59.626Z,99.90
2018-03-15T01:06:05.305Z,99.90
2018-03-15T01:07:11.173Z,99.90
2018-03-15T01:08:16.982Z,99.90
2018-03-15T01:09:22.174Z,99.90
2018-03-15T01:10:28.605Z,99.90
2018-03-15T01:11:34.409Z,99.90
2018-03-15T01:12:40.366Z,99.90
2018-03-15T01:13:47.302Z,99.90
2018-03-15T01:14:53.796Z,99.90
2018-03-15T01:15:59.349Z,99.90
2018-03-15T01:17:04.878Z,99.90
2018-03-15T01:18:10.159Z,99.90
2018-03-15T01:19:15.545Z,99.90
2018-03-15T01:20:21.380Z,99.90
2018-03-15T01:21:27.076Z,99.90
2018-03-15T01:22:32.440Z,99.90
2018-03-15T01:23:37.656Z,99.90
2018-03-15T01:24:45.227Z,99.90
2018-03-15T01:25:50.213Z,99.90
2018-03-15T01:26:56.176Z,99.90
2018-03-15T01:28:02.923Z,99.90
2018-03-15T01:29:09.895Z,99.90
2018-03-15T01:30:15.017Z,99.90
2018-03-15T01:31:20.313Z,99.90
2018-03-15T01:32:26.329Z,99.90
2018-03-15T01:33:31.761Z,99.90
2018-03-15T01:34:37.276Z,99.90
2018-03-15T01:35:43.312Z,99.90
2018-03-15T01:36:49.653Z,99.90
2018-03-15T01:37:56.675Z,99.90
2018-03-15T01:39:02.304Z,99.90
2018-03-15T01:40:08.075Z,99.90
2018-03-15T01:41:14.040Z,99.90
2018-03-15T01:42:19.580Z,99.90
2018-03-15T01:43:26.842Z,99.90
2018-03-15T01:44:34.685Z,99.90
2018-03-15T01:45:41.922Z,99.90
2018-03-15T01:46:49.614Z,99.90
2018-03-15T01:47:55.637Z,99.90
2018-03-15T01:49:00.494Z,99.90
2018-03-15T01:50:06.207Z,99.90
2018-03-15T01:51:12.179Z,99.90
2018-03-15T01:52:17.938Z,99.90
2018-03-15T01:53:23.492Z,99.90
2018-03-15T01:54:29.220Z,99.90
2018-03-15T01:55:33.951Z,99.90
2018-03-15T01:56:39.300Z,99.90
2018-03-15T01:57:45.395Z,99.90
2018-03-15T01:58:50.089Z,99.90
2018-03-15T01:59:56.086Z,99.90
2018-03-15T02:01:01.077Z,99.90
2018-03-15T02:02:07.699Z,99.90
2018-03-15T02:03:12.838Z,99.90
2018-03-15T02:04:19.102Z,99.90
2018-03-15T02:05:25.875Z,99.90
2018-03-15T02:06:31.609Z,99.90
2018-03-15T02:07:36.018Z,99.90
2018-03-15T02:08:41.155Z,99.90
2018-03-15T02:09:46.580Z,99.90
2018-03-15T02:10:52.628Z,99.90
2018-03-15T02:11:58.184Z,99.90
2018-03-15T02:13:03.953Z,99.90
2018-03-15T02:14:08.773Z,99.90
2018-03-15T02:15:13.496Z,99.90
2018-03-15T02:16:18.069Z,99.90
2018-03-15T02:17:24.666Z,99.90
2018-03-15T02:18:29.436Z,99.90
2018-03-15T02:19:34.446Z,99.90
2018-03-15T02:20:39.968Z,99.90
2018-03-15T02:21:45.366Z,99.90
2018-03-15T02:22:51.488Z,99.90
2018-03-15T02:23:58.741Z,99.90
2018-03-15T02:25:05.459Z,99.90
2018-03-15T02:26:10.862Z,99.90
2018-03-15T02:27:17.241Z,99.90
2018-03-15T02:28:23.480Z,99.90
2018-03-15T02:29:28.048Z,99.90
2018-03-15T02:30:32.762Z,99.90
2018-03-15T02:31:37.296Z,99.90
2018-03-15T02:32:43.277Z,99.90
2018-03-15T02:33:48.480Z,99.90
2018-03-15T02:34:53.751Z,99.90
2018-03-15T02:35:58.090Z,99.90
2018-03-15T02:37:02.773Z,99.90
2018-03-15T02:38:12.500Z,99.90
2018-03-15T02:39:17.839Z,99.90
2018-03-15T02:40:22.949Z,99.90
2018-03-15T02:41:28.044Z,99.90
2018-03-15T02:42:32.716Z,99.90
2018-03-15T02:43:38.616Z,99.90
2018-03-15T02:44:44.779Z,99.80
2018-03-15T02:45:51.519Z,99.70
2018-03-15T02:46:57.649Z,99.80
2018-03-15T02:48:03.082Z,99.80
2018-03-15T02:49:08.178Z,99.70
2018-03-15T02:50:13.104Z,99.80
2018-03-15T02:51:17.852Z,99.70
2018-03-15T02:52:22.820Z,99.70
2018-03-15T02:53:28.057Z,99.60
2018-03-15T02:54:32.985Z,99.60
2018-03-15T02:55:37.352Z,99.60
2018-03-15T02:56:41.940Z,99.40
2018-03-15T02:57:46.756Z,99.40
2018-03-15T02:58:51.938Z,99.30
2018-03-15T02:59:56.399Z,99.40
2018-03-15T03:01:00.843Z,99.30
2018-03-15T03:02:06.746Z,99.40
2018-03-15T03:03:11.436Z,99.40
2018-03-15T03:04:17.188Z,99.20
2018-03-15T03:05:22.283Z,99.40
2018-03-15T03:06:27.735Z,99.30
2018-03-15T03:07:34.815Z,99.30
2018-03-15T03:08:39.485Z,99.30
2018-03-15T03:09:45.058Z,99.10
2018-03-15T03:10:52.147Z,98.90
2018-03-15T03:11:56.798Z,98.90
2018-03-15T03:13:02.152Z,98.90
2018-03-15T03:14:07.646Z,99.10
2018-03-15T03:15:12.010Z,99.10
2018-03-15T03:16:16.681Z,99.10
2018-03-15T03:17:22.419Z,99.10
2018-03-15T03:18:28.112Z,98.90
2018-03-15T03:19:33.288Z,98.90
2018-03-15T03:20:37.820Z,98.90
2018-03-15T03:21:43.933Z,98.90
2018-03-15T03:22:49.507Z,98.90
2018-03-15T03:23:57.638Z,98.90
2018-03-15T03:25:03.370Z,98.90
2018-03-15T03:26:10.174Z,98.90
2018-03-15T03:27:15.282Z,99.00
2018-03-15T03:28:21.805Z,98.70
2018-03-15T03:29:29.875Z,99.00
2018-03-15T03:30:36.046Z,99.00
2018-03-15T03:31:41.990Z,98.50
2018-03-15T03:32:49.406Z,98.60
2018-03-15T03:33:55.410Z,98.60
2018-03-15T03:35:01.334Z,98.70
2018-03-15T03:36:06.868Z,98.50
2018-03-15T03:37:11.524Z,98.60
2018-03-15T03:38:16.991Z,98.50
2018-03-15T03:39:22.239Z,98.50
2018-03-15T03:40:27.066Z,98.40
2018-03-15T03:41:32.035Z,98.50
2018-03-15T03:42:39.607Z,98.50
2018-03-15T03:43:45.323Z,98.60
2018-03-15T03:44:51.988Z,98.60
2018-03-15T03:45:58.122Z,98.50
2018-03-15T03:47:04.193Z,98.50
2018-03-15T03:48:10.316Z,98.50
2018-03-15T03:49:14.702Z,98.50
2018-03-15T03:50:19.231Z,98.70
2018-03-15T03:51:23.560Z,98.30
2018-03-15T03:52:27.867Z,98.40
2018-03-15T03:53:33.270Z,98.20
2018-03-15T03:54:38.062Z,98.20
2018-03-15T03:55:42.420Z,98.40
2018-03-15T03:56:46.710Z,98.20
2018-03-15T03:57:51.931Z,98.30
2018-03-15T03:58:58.304Z,98.20
2018-03-15T04:00:03.618Z,98.20
2018-03-15T04:01:08.458Z,98.30
2018-03-15T04:02:14.041Z,98.20
2018-03-15T04:03:18.290Z,98.20
2018-03-15T04:04:23.210Z,98.10
2018-03-15T04:05:27.962Z,98.00
2018-03-15T04:06:33.474Z,97.80
2018-03-15T04:08:43.496Z,98.00
2018-03-15T04:09:48.270Z,98.10
2018-03-15T04:10:54.477Z,98.10
2018-03-15T04:11:58.760Z,98.00
2018-03-15T04:13:03.190Z,98.20
2018-03-15T04:14:08.483Z,97.90
2018-03-15T04:15:12.871Z,97.70
2018-03-15T04:16:17.745Z,97.80
2018-03-15T04:17:22.137Z,97.90
2018-03-15T04:18:27.302Z,97.80
2018-03-15T04:19:31.778Z,97.70
2018-03-15T04:20:36.501Z,97.60
2018-03-15T04:21:41.819Z,97.80
2018-03-15T04:22:46.889Z,97.50
2018-03-15T04:23:51.925Z,97.50
2018-03-15T04:24:56.426Z,97.40
2018-03-15T04:26:00.727Z,97.40
2018-03-15T04:27:05.355Z,97.70
2018-03-15T04:28:09.900Z,97.50
2018-03-15T04:29:14.869Z,97.40
2018-03-15T04:30:19.412Z,97.50
2018-03-15T04:31:24.564Z,97.30
2018-03-15T04:32:29.041Z,97.30
2018-03-15T04:33:33.571Z,97.50
2018-03-15T04:34:38.930Z,97.50
2018-03-15T04:35:43.572Z,97.50
2018-03-15T04:36:47.973Z,97.40
2018-03-15T04:37:53.097Z,97.30
2018-03-15T04:38:58.202Z,97.00
2018-03-15T04:40:04.020Z,97.20
2018-03-15T04:41:09.734Z,96.90
2018-03-15T04:42:14.210Z,96.90
2018-03-15T04:43:19.592Z,96.90
2018-03-15T04:44:24.824Z,96.90
2018-03-15T04:45:29.231Z,97.30
2018-03-15T04:46:34.572Z,97.30
2018-03-15T04:47:40.979Z,96.90
2018-03-15T04:48:46.010Z,96.90
2018-03-15T04:49:50.413Z,97.20
2018-03-15T04:50:55.627Z,97.00
2018-03-15T04:52:00.442Z,96.90
2018-03-15T04:53:04.938Z,96.80
2018-03-15T04:54:09.761Z,97.00
2018-03-15T04:55:15.218Z,96.50
2018-03-15T04:56:19.832Z,96.60
2018-03-15T04:57:24.542Z,96.50
2018-03-15T04:58:29.332Z,96.50
2018-03-15T04:59:34.660Z,96.50
2018-03-15T05:00:39.999Z,96.70
2018-03-15T05:01:45.302Z,96.70
2018-03-15T05:02:49.680Z,96.80
2018-03-15T05:03:54.825Z,96.50
2018-03-15T05:04:59.190Z,96.40
2018-03-15T05:06:03.568Z,96.60
2018-03-15T05:07:12.203Z,96.40
2018-03-15T05:08:16.643Z,96.40
2018-03-15T05:09:21.518Z,96.30
2018-03-15T05:10:26.393Z,96.30
2018-03-15T05:11:30.785Z,96.40
2018-03-15T05:12:35.253Z,96.30
2018-03-15T05:13:39.701Z,96.60
2018-03-15T05:14:44.440Z,96.50
2018-03-15T05:15:48.912Z,96.40
2018-03-15T05:16:54.011Z,96.40
2018-03-15T05:17:59.196Z,96.20
2018-03-15T05:19:03.795Z,96.20
2018-03-15T05:20:08.722Z,96.40
2018-03-15T05:21:14.865Z,96.50
2018-03-15T05:22:19.538Z,96.60
2018-03-15T05:23:25.595Z,96.60
2018-03-15T05:24:31.123Z,96.60
2018-03-15T05:25:37.681Z,96.60
2018-03-15T05:26:43.606Z,96.60
2018-03-15T05:27:48.747Z,96.40
2018-03-15T05:28:55.930Z,96.60
2018-03-15T05:30:00.276Z,96.60
2018-03-15T05:31:05.035Z,96.60
2018-03-15T05:32:09.787Z,96.80
2018-03-15T05:33:14.291Z,96.70
2018-03-15T05:34:20.525Z,96.70
2018-03-15T05:35:26.168Z,96.80
2018-03-15T05:36:31.323Z,96.70
2018-03-15T05:37:36.722Z,96.80
2018-03-15T05:38:41.581Z,96.70
2018-03-15T05:39:46.061Z,96.60
2018-03-15T05:40:51.771Z,96.50
2018-03-15T05:41:58.272Z,96.50
2018-03-15T05:43:04.278Z,96.50
2018-03-15T05:44:09.706Z,96.50
2018-03-15T05:45:14.723Z,96.60
2018-03-15T05:46:19.503Z,96.50
2018-03-15T05:47:25.373Z,96.50
2018-03-15T05:48:30.718Z,96.40
2018-03-15T05:49:36.171Z,96.60
2018-03-15T05:50:41.600Z,96.60
2018-03-15T05:51:48.269Z,96.70
2018-03-15T05:52:55.399Z,96.60
2018-03-15T05:54:00.520Z,96.70
2018-03-15T05:55:05.676Z,96.50
2018-03-15T05:56:11.037Z,96.50
2018-03-15T05:57:17.287Z,96.90
2018-03-15T05:58:22.916Z,96.70
2018-03-15T05:59:28.543Z,96.50
2018-03-15T06:00:33.899Z,96.50
2018-03-15T06:01:39.978Z,96.60
2018-03-15T06:02:45.457Z,96.60
2018-03-15T06:03:54.810Z,96.60
2018-03-15T06:05:28.003Z,96.80
2018-03-15T06:06:34.922Z,96.50
2018-03-15T06:07:40.159Z,96.50
2018-03-15T06:08:45.905Z,96.50
2018-03-15T06:10:06.938Z,96.30
2018-03-15T06:11:13.266Z,96.30
2018-03-15T06:12:18.540Z,96.30
2018-03-15T06:13:24.753Z,96.30
2018-03-15T06:14:32.877Z,96.50
2018-03-15T06:15:38.174Z,96.80
2018-03-15T06:16:43.333Z,96.50
2018-03-15T06:17:48.583Z,96.40
2018-03-15T06:18:54.734Z,96.40
2018-03-15T06:20:00.283Z,96.50
2018-03-15T06:21:05.731Z,96.40
2018-03-15T06:22:11.047Z,97.00
2018-03-15T06:23:16.317Z,96.70
2018-03-15T06:24:22.430Z,96.40
2018-03-15T06:25:27.453Z,96.40
2018-03-15T06:26:32.861Z,96.30
2018-03-15T06:27:37.948Z,96.10
2018-03-15T06:28:43.308Z,95.90
2018-03-15T06:29:48.659Z,95.90
2018-03-15T06:30:56.679Z,95.70
2018-03-15T06:32:02.458Z,95.80
2018-03-15T06:33:08.435Z,95.80
2018-03-15T06:34:13.892Z,95.80
2018-03-15T06:37:27.445Z,95.70
2018-03-15T06:38:33.447Z,95.70
2018-03-15T06:39:38.457Z,95.80
2018-03-15T06:40:43.712Z,95.80
2018-03-15T06:41:49.831Z,95.90
2018-03-15T06:42:56.709Z,95.70
2018-03-15T06:44:01.788Z,95.70
2018-03-15T06:45:06.934Z,96.20
2018-03-15T06:46:13.011Z,95.60
2018-03-15T06:47:18.441Z,95.60
2018-03-15T06:48:23.852Z,95.60
2018-03-15T06:49:29.158Z,95.60
2018-03-15T06:50:34.442Z,95.40
2018-03-15T06:51:39.753Z,95.60
2018-03-15T06:52:45.996Z,95.70
2018-03-15T06:53:53.484Z,95.20
2018-03-15T06:54:59.942Z,94.90
2018-03-15T06:56:05.471Z,94.90
2018-03-15T06:57:11.822Z,94.80
2018-03-15T06:58:18.171Z,94.90
2018-03-15T06:59:25.801Z,94.90
2018-03-15T07:00:31.088Z,95.00
2018-03-15T07:01:37.043Z,94.90
2018-03-15T07:02:44.386Z,94.90
2018-03-15T07:03:52.383Z,94.90
2018-03-15T07:04:57.833Z,95.00
2018-03-15T07:06:03.882Z,95.00
2018-03-15T07:07:09.970Z,95.10
2018-03-15T07:08:17.167Z,95.00
2018-03-15T07:09:22.737Z,94.90
2018-03-15T07:10:28.425Z,95.00
2018-03-15T07:11:34.664Z,95.10
2018-03-15T07:12:39.951Z,95.30
2018-03-15T07:13:45.589Z,95.20
2018-03-15T07:14:52.861Z,95.10
2018-03-15T07:16:00.614Z,95.30
2018-03-15T07:17:06.238Z,95.30
2018-03-15T07:18:12.376Z,95.20
2018-03-15T07:19:17.833Z,95.00
2018-03-15T07:20:23.403Z,95.10
2018-03-15T07:21:29.614Z,94.80
2018-03-15T07:22:35.847Z,94.80
2018-03-15T07:23:41.071Z,94.70
2018-03-15T07:24:47.899Z,94.80
2018-03-15T07:25:54.388Z,94.70
2018-03-15T07:27:00.778Z,94.60
2018-03-15T07:28:06.159Z,94.60
2018-03-15T07:29:12.846Z,94.60
2018-03-15T07:30:18.287Z,94.60
2018-03-15T07:31:23.768Z,94.40
2018-03-15T07:32:29.071Z,94.20
2018-03-15T07:33:34.372Z,94.10
2018-03-15T07:34:41.025Z,93.70
2018-03-15T07:35:46.881Z,93.80
2018-03-15T07:36:52.340Z,93.80
2018-03-15T07:37:58.411Z,93.80
2018-03-15T07:39:04.005Z,93.60
2018-03-15T07:40:09.195Z,93.70
2018-03-15T07:41:14.202Z,93.60
2018-03-15T07:42:20.160Z,93.30
2018-03-15T07:43:26.462Z,93.30
2018-03-15T07:44:31.930Z,93.40
2018-03-15T07:45:38.239Z,93.30
2018-03-15T07:46:43.669Z,93.30
2018-03-15T07:47:49.618Z,92.60
2018-03-15T07:48:55.209Z,93.00
2018-03-15T07:50:00.838Z,92.60
2018-03-15T07:51:10.982Z,92.50
2018-03-15T07:52:16.748Z,92.50
2018-03-15T07:53:24.986Z,92.30
2018-03-15T07:54:30.691Z,92.20
2018-03-15T07:55:35.852Z,92.20
2018-03-15T07:56:41.949Z,92.00
2018-03-15T07:57:47.175Z,92.00
2018-03-15T07:58:52.371Z,91.80
2018-03-15T07:59:57.714Z,92.00
2018-03-15T08:01:02.810Z,91.70
2018-03-15T08:02:08.474Z,91.70
2018-03-15T08:03:14.407Z,91.50
2018-03-15T08:04:19.834Z,91.70
2018-03-15T08:05:25.542Z,91.70
2018-03-15T08:06:31.873Z,91.80
2018-03-15T08:07:37.869Z,91.80
2018-03-15T08:08:43.680Z,91.50
2018-03-15T08:09:54.530Z,91.40
2018-03-15T08:11:30.257Z,91.40
2018-03-15T08:12:36.656Z,91.30
2018-03-15T08:13:44.494Z,90.90
2018-03-15T08:14:50.800Z,90.90
2018-03-15T08:16:02.672Z,90.60
2018-03-15T08:17:08.891Z,90.60
2018-03-15T08:18:15.073Z,90.90
2018-03-15T08:19:20.925Z,90.80
2018-03-15T08:20:26.830Z,90.70
2018-03-15T08:21:31.770Z,90.70
2018-03-15T08:22:37.321Z,90.90
2018-03-15T08:23:43.197Z,90.20
2018-03-15T08:24:48.012Z,90.20
2018-03-15T08:25:54.448Z,90.30
2018-03-15T08:27:00.505Z,90.00
2018-03-15T08:28:05.831Z,90.00
2018-03-15T08:29:15.354Z,90.10
2018-03-15T08:30:22.807Z,90.20
2018-03-15T08:31:29.177Z,90.20
2018-03-15T08:32:36.116Z,90.10
2018-03-15T08:33:41.983Z,90.20
2018-03-15T08:34:49.645Z,90.20
2018-03-15T08:35:57.471Z,90.30
2018-03-15T08:37:08.195Z,88.50
2018-03-15T08:38:14.515Z,89.00
2018-03-15T08:39:26.954Z,88.30
2018-03-15T08:40:36.499Z,88.00
2018-03-15T08:41:45.533Z,88.50
2018-03-15T08:42:53.178Z,87.80
2018-03-15T08:43:59.181Z,87.10
2018-03-15T08:45:05.339Z,87.20
2018-03-15T08:46:12.688Z,87.70
2018-03-15T08:47:20.592Z,87.30
2018-03-15T08:48:25.826Z,87.40
2018-03-15T08:50:43.983Z,86.60
2018-03-15T08:51:50.047Z,86.70
2018-03-15T08:52:56.363Z,86.70
2018-03-15T08:54:03.228Z,86.60
2018-03-15T08:55:09.945Z,86.00
2018-03-15T08:56:16.293Z,84.90
2018-03-15T08:57:24.951Z,84.70
2018-03-15T08:58:47.340Z,85.00
2018-03-15T08:59:56.116Z,84.80
2018-03-15T09:01:03.109Z,84.70
2018-03-15T09:02:09.720Z,85.30
2018-03-15T09:03:17.701Z,84.90
2018-03-15T09:04:23.588Z,84.60
2018-03-15T09:05:28.520Z,84.60
2018-03-15T09:06:33.556Z,83.80
2018-03-15T09:07:39.784Z,84.10
2018-03-15T09:08:46.225Z,84.20
2018-03-15T09:09:52.369Z,84.40
2018-03-15T09:10:58.400Z,84.60
2018-03-15T09:12:03.940Z,83.70
2018-03-15T09:13:09.429Z,84.10
2018-03-15T09:14:14.480Z,84.10
2018-03-15T09:15:19.492Z,84.70
2018-03-15T09:16:24.326Z,83.90
2018-03-15T09:17:29.251Z,83.00
2018-03-15T09:18:34.742Z,82.80
2018-03-15T09:19:39.589Z,83.10
2018-03-15T09:20:44.497Z,83.70
2018-03-15T09:21:49.371Z,83.40
2018-03-15T09:22:56.490Z,81.50
2018-03-15T09:24:01.364Z,80.90
2018-03-15T09:25:06.428Z,80.80
2018-03-15T09:26:11.686Z,81.20
2018-03-15T09:27:16.805Z,81.50
2018-03-15T09:28:21.838Z,80.70
2018-03-15T09:29:29.309Z,80.20
2018-03-15T09:30:34.466Z,80.60
2018-03-15T09:31:39.428Z,80.50
2018-03-15T09:32:44.365Z,80.60
2018-03-15T09:33:49.184Z,81.20
2018-03-15T09:34:55.636Z,79.90
2018-03-15T09:36:00.675Z,78.70
2018-03-15T09:37:05.817Z,78.30
2018-03-15T09:38:11.517Z,77.50
2018-03-15T09:39:18.714Z,77.50
2018-03-15T09:40:23.476Z,77.50
2018-03-15T09:41:28.304Z,77.50
2018-03-15T09:42:33.432Z,77.60
2018-03-15T09:43:38.897Z,77.40
2018-03-15T09:44:43.674Z,77.50
2018-03-15T09:45:48.328Z,77.90
2018-03-15T09:46:56.169Z,77.60
2018-03-15T09:48:01.246Z,77.40
2018-03-15T09:49:05.937Z,77.30
2018-03-15T09:50:10.718Z,77.80
2018-03-15T09:51:16.485Z,76.80
2018-03-15T09:52:21.286Z,76.80
2018-03-15T09:53:26.919Z,75.50
2018-03-15T09:54:32.001Z,75.40
2018-03-15T09:55:37.597Z,75.00
2018-03-15T09:56:42.483Z,75.00
2018-03-15T09:57:48.325Z,74.70
2018-03-15T09:58:54.059Z,74.70
2018-03-15T09:59:58.825Z,74.40
2018-03-15T10:01:03.648Z,73.80
2018-03-15T10:02:08.507Z,73.70
2018-03-15T10:03:13.703Z,73.00
2018-03-15T10:04:18.595Z,73.70
2018-03-15T10:05:23.697Z,74.10
2018-03-15T10:06:29.242Z,71.50
2018-03-15T10:07:36.257Z,71.80
2018-03-15T10:08:41.138Z,71.70
2018-03-15T10:09:47.421Z,71.10
2018-03-15T10:10:53.970Z,71.50
2018-03-15T10:11:59.604Z,71.20
2018-03-15T10:13:05.159Z,70.60
2018-03-15T10:14:10.032Z,70.70
2018-03-15T10:15:17.926Z,71.00
2018-03-15T10:16:22.964Z,71.40
2018-03-15T10:17:28.394Z,70.30
2018-03-15T10:18:33.452Z,70.40
2018-03-15T10:19:39.659Z,70.20
2018-03-15T10:20:44.616Z,70.20
2018-03-15T10:21:49.485Z,69.80
2018-03-15T10:22:55.389Z,70.20
2018-03-15T10:24:01.133Z,70.30
2018-03-15T10:25:13.610Z,70.90
2018-03-15T10:26:11.597Z,72.10
2018-03-15T10:27:18.953Z,71.40
2018-03-15T10:28:23.820Z,70.60
2018-03-15T10:29:29.373Z,70.30
2018-03-15T10:30:35.773Z,68.00
2018-03-15T10:31:40.687Z,68.00
2018-03-15T10:32:46.368Z,68.90
2018-03-15T10:33:54.491Z,68.10
2018-03-15T10:35:03.271Z,68.10
2018-03-15T10:36:08.905Z,68.00
2018-03-15T10:37:14.903Z,68.20
2018-03-15T10:38:20.620Z,67.70
2018-03-15T10:39:25.555Z,67.80
2018-03-15T10:40:35.226Z,68.20
2018-03-15T10:41:41.974Z,68.10
2018-03-15T10:42:47.178Z,67.40
2018-03-15T10:43:53.286Z,66.60
2018-03-15T10:44:58.051Z,66.50
2018-03-15T10:46:03.010Z,66.20
2018-03-15T10:47:09.174Z,66.50
2018-03-15T10:48:14.055Z,65.70
2018-03-15T10:49:21.418Z,65.10
2018-03-15T10:50:27.600Z,64.40
2018-03-15T10:51:32.277Z,64.50
2018-03-15T10:52:37.261Z,64.70
2018-03-15T10:53:42.333Z,65.50
2018-03-15T10:54:48.218Z,65.10
2018-03-15T10:55:54.333Z,65.20
2018-03-15T10:57:00.345Z,64.40
2018-03-15T10:58:05.092Z,64.20
2018-03-15T10:59:09.954Z,63.70
2018-03-15T11:00:15.830Z,63.60
2018-03-15T11:01:22.888Z,63.50
2018-03-15T11:02:32.024Z,62.50
2018-03-15T11:03:40.987Z,62.20
2018-03-15T11:04:51.903Z,61.80
2018-03-15T11:06:00.829Z,61.80
2018-03-15T11:07:05.756Z,63.40
2018-03-15T11:08:14.811Z,62.40
2018-03-15T11:09:23.716Z,63.30
2018-03-15T11:10:28.464Z,63.20
2018-03-15T11:11:33.203Z,63.10
2018-03-15T11:12:39.496Z,61.10
2018-03-15T11:13:45.177Z,61.10
2018-03-15T11:14:50.559Z,60.40
2018-03-15T11:15:56.257Z,60.80
2018-03-15T11:17:01.062Z,60.90
2018-03-15T11:18:05.937Z,61.90
2018-03-15T11:19:10.812Z,61.70
2018-03-15T11:20:15.589Z,60.40
2018-03-15T11:21:21.200Z,61.30
2018-03-15T11:22:27.917Z,60.60
2018-03-15T11:23:33.296Z,60.60
2018-03-15T11:24:39.829Z,59.50
2018-03-15T11:25:45.681Z,59.50
2018-03-15T11:26:53.160Z,60.00
2018-03-15T11:28:00.496Z,58.90
2018-03-15T11:29:06.613Z,59.40
2018-03-15T11:30:12.763Z,59.30
2018-03-15T11:31:18.810Z,58.60
2018-03-15T11:32:25.237Z,59.00
2018-03-15T11:33:31.114Z,59.00
2018-03-15T11:34:37.075Z,58.40
2018-03-15T11:35:42.527Z,58.10
2018-03-15T11:36:48.116Z,57.40
2018-03-15T11:37:55.974Z,56.70
2018-03-15T11:39:01.932Z,56.50
2018-03-15T11:40:08.082Z,57.10
2018-03-15T11:41:13.925Z,57.60
2018-03-15T11:42:19.527Z,57.80
2018-03-15T11:43:26.058Z,58.00
2018-03-15T11:44:32.532Z,58.80
2018-03-15T11:45:38.793Z,58.80
2018-03-15T11:46:45.990Z,58.80
2018-03-15T11:47:53.468Z,59.20
2018-03-15T11:48:58.406Z,58.40
2018-03-15T11:50:04.045Z,58.80
2018-03-15T11:51:09.829Z,58.80
2018-03-15T11:52:15.346Z,59.20
2018-03-15T11:53:20.991Z,59.10
2018-03-15T11:54:26.482Z,58.80
2018-03-15T11:55:31.728Z,59.20
2018-03-15T11:56:37.481Z,58.90
2018-03-15T11:57:42.657Z,59.40
2018-03-15T11:58:49.955Z,58.70
2018-03-15T11:59:59.384Z,58.50
2018-03-15T12:01:04.662Z,58.40
2018-03-15T12:02:11.892Z,58.80
2018-03-15T12:03:18.877Z,58.80
2018-03-15T12:04:25.431Z,58.80
2018-03-15T12:05:31.033Z,59.60
2018-03-15T12:06:36.977Z,58.80
2018-03-15T12:07:42.541Z,59.20
2018-03-15T12:08:52.246Z,59.70
2018-03-15T12:09:57.883Z,59.70
2018-03-15T12:11:03.531Z,59.30
2018-03-15T12:12:09.140Z,58.90
2018-03-15T12:13:13.876Z,58.90
2018-03-15T12:14:19.846Z,59.00
2018-03-15T12:15:26.593Z,59.00
2018-03-15T12:16:31.707Z,59.10
2018-03-15T12:17:37.014Z,60.00
2018-03-15T12:18:44.393Z,59.80
2018-03-15T12:19:53.129Z,60.10
2018-03-15T12:20:59.668Z,60.10
2018-03-15T12:22:06.227Z,59.60
2018-03-15T12:23:12.745Z,59.10
2018-03-15T12:24:17.412Z,59.00
2018-03-15T12:25:24.002Z,59.50
2018-03-15T12:26:29.605Z,59.50
2018-03-15T12:27:36.035Z,60.20
2018-03-15T12:28:41.517Z,60.30
2018-03-15T12:29:46.409Z,60.40
2018-03-15T12:30:55.669Z,60.50
2018-03-15T12:32:01.273Z,60.50
2018-03-15T12:33:07.709Z,60.80
2018-03-15T12:34:13.690Z,60.80
2018-03-15T12:35:19.497Z,60.90
2018-03-15T12:36:24.977Z,60.90
2018-03-15T12:37:30.901Z,60.70
2018-03-15T12:38:37.348Z,60.50
2018-03-15T12:39:43.022Z,60.40
2018-03-15T12:40:48.787Z,60.50
2018-03-15T12:41:55.542Z,60.40
2018-03-15T12:43:01.149Z,60.90
2018-03-15T12:44:05.965Z,60.80
2018-03-15T12:45:12.810Z,61.20
2018-03-15T12:46:19.638Z,61.20
2018-03-15T12:47:25.764Z,61.60
2018-03-15T12:48:31.458Z,61.70
2018-03-15T12:49:36.868Z,61.70
2018-03-15T12:50:43.777Z,62.90
2018-03-15T12:51:49.816Z,62.80
2018-03-15T12:52:58.410Z,62.80
2018-03-15T12:54:04.103Z,62.30
2018-03-15T12:55:13.294Z,62.80
2018-03-15T12:56:18.925Z,62.70
2018-03-15T12:57:26.486Z,62.50
2018-03-15T12:58:31.861Z,62.20
2018-03-15T12:59:38.823Z,62.70
2018-03-15T13:00:48.818Z,62.80
2018-03-15T13:01:54.175Z,62.70
2018-03-15T13:03:00.238Z,62.80
2018-03-15T13:04:07.031Z,62.60
2018-03-15T13:05:13.090Z,62.50
2018-03-15T13:06:18.048Z,62.50
2018-03-15T13:07:22.638Z,62.20
2018-03-15T13:08:30.645Z,62.10
2018-03-15T13:09:35.508Z,61.70
2018-03-15T13:10:41.087Z,62.20
2018-03-15T13:11:46.064Z,62.20
2018-03-15T13:12:53.231Z,61.80
2018-03-15T13:13:59.031Z,62.40
2018-03-15T13:15:03.808Z,62.40
2018-03-15T13:16:08.780Z,62.80
2018-03-15T13:17:13.549Z,63.20
2018-03-15T13:18:18.389Z,63.20
2018-03-15T13:19:23.148Z,62.60
2018-03-15T13:20:34.170Z,62.50
2018-03-15T13:21:40.477Z,62.20
2018-03-15T13:22:45.599Z,62.90
2018-03-15T13:23:53.140Z,63.20
2018-03-15T13:24:59.373Z,63.30
2018-03-15T13:26:04.107Z,63.30
2018-03-15T13:27:08.846Z,64.30
2018-03-15T13:28:13.894Z,64.80
2018-03-15T13:29:20.431Z,63.70
2018-03-15T13:30:26.234Z,63.70
2018-03-15T13:31:33.771Z,63.70
2018-03-15T13:32:38.595Z,63.90
2018-03-15T13:33:44.538Z,64.40
2018-03-15T13:34:50.161Z,63.50
2018-03-15T13:35:58.382Z,62.90
2018-03-15T13:37:03.990Z,61.80
2018-03-15T13:38:08.951Z,61.80
2018-03-15T13:39:14.422Z,63.00
2018-03-15T13:40:19.177Z,63.00
2018-03-15T13:41:24.378Z,63.30
2018-03-15T13:42:29.998Z,63.00
2018-03-15T13:43:34.728Z,62.40
2018-03-15T13:44:39.771Z,62.90
2018-03-15T13:45:44.521Z,62.10
2018-03-15T13:46:51.732Z,62.80
2018-03-15T13:47:57.970Z,62.80
2018-03-15T13:49:03.651Z,63.30
2018-03-15T13:50:08.633Z,63.30
2018-03-15T13:51:13.475Z,63.50
2018-03-15T13:52:18.127Z,62.80
2018-03-15T13:53:24.096Z,62.90
2018-03-15T13:54:29.585Z,63.50
2018-03-15T13:55:34.690Z,63.50
2018-03-15T13:56:41.542Z,63.40
2018-03-15T13:57:48.278Z,63.80
2018-03-15T13:58:55.079Z,63.80
2018-03-15T13:59:59.897Z,63.70
2018-03-15T14:01:07.885Z,62.90
2018-03-15T14:02:12.668Z,62.30
2018-03-15T14:03:17.855Z,62.20
2018-03-15T14:04:27.496Z,63.40
2018-03-15T14:05:33.678Z,63.70
2018-03-15T14:06:47.079Z,63.30
2018-03-15T14:07:54.185Z,63.20
2018-03-15T14:08:59.962Z,64.20
2018-03-15T14:10:04.989Z,64.00
2018-03-15T14:11:14.407Z,63.60
2018-03-15T14:12:25.693Z,63.00
2018-03-15T14:13:31.400Z,63.10